createdAt,value
2023-04-29T00:03:46.036Z,99145.06
2023-04-29T00:08:47.874Z,99121.59
2023-04-29T00:13:49.476Z,99095.25
2023-04-29T00:18:51.116Z,99075.38
2023-04-29T00:23:52.853Z,99135.38
2023-04-29T00:28:54.457Z,99112.09
2023-04-29T00:33:56.345Z,99141.97
2023-04-29T00:38:58.748Z,99132.97
2023-04-29T00:44:00.468Z,99152.84
2023-04-29T00:49:02.705Z,99082.34
2023-04-29T00:54:08.971Z,99125.50
2023-04-29T00:59:12.599Z,99148.53
2023-04-29T01:04:14.834Z,99082.91
2023-04-29T01:09:47.474Z,99080.41
2023-04-29T01:14:58.867Z,99121.25
2023-04-29T01:20:01.924Z,99122.09
2023-04-29T01:25:03.532Z,99133.94
2023-04-29T01:30:11.652Z,99160.41
2023-04-29T01:35:52.388Z,99169.59
2023-04-29T01:41:07.386Z,99130.69
2023-04-29T01:46:18.607Z,99147.72
2023-04-29T01:51:20.377Z,99163.97
2023-04-29T01:56:22.012Z,99152.91
2023-04-29T02:01:23.931Z,99131.44
2023-04-29T02:06:26.588Z,99152.38
2023-04-29T02:11:28.314Z,99164.03
2023-04-29T02:16:29.881Z,99141.56
2023-04-29T02:21:32.112Z,99173.34
2023-04-29T02:26:34.531Z,99187.47
2023-04-29T02:31:36.248Z,99186.16
2023-04-29T02:36:37.907Z,99205.31
2023-04-29T02:41:39.530Z,99237.97
2023-04-29T02:46:45.320Z,99253.34
2023-04-29T02:51:49.696Z,99267.63
2023-04-29T02:56:51.258Z,99243.41
2023-04-29T03:01:54.186Z,99276.47
2023-04-29T03:06:59.056Z,99266.25
2023-04-29T03:12:01.262Z,99262.66
2023-04-29T03:17:02.972Z,99250.66
2023-04-29T03:22:04.708Z,99291.34
2023-04-29T03:27:06.330Z,99200.53
2023-04-29T03:32:07.985Z,99257.06
2023-04-29T03:37:09.604Z,99256.03
2023-04-29T03:42:11.384Z,99310.88
2023-04-29T03:47:13.870Z,99244.75
2023-04-29T03:52:16.148Z,99265.63
2023-04-29T03:57:17.783Z,99259.63
2023-04-29T04:02:19.797Z,99277.09
2023-04-29T04:07:21.497Z,99311.53
2023-04-29T04:12:23.029Z,99263.25
2023-04-29T04:17:24.585Z,99334.75
2023-04-29T04:22:26.171Z,99238.56
2023-04-29T04:27:27.919Z,99368.91
2023-04-29T04:32:29.473Z,99321.31
2023-04-29T04:37:31.045Z,99355.69
2023-04-29T04:42:32.627Z,99427.81
2023-04-29T04:47:34.220Z,99467.09
2023-04-29T04:52:35.951Z,99460.66
2023-04-29T04:57:37.504Z,99424.38
2023-04-29T05:02:39.626Z,99441.63
2023-04-29T05:07:41.242Z,99401.53
2023-04-29T05:12:42.811Z,99430.56
2023-04-29T05:17:44.412Z,99308.44
2023-04-29T05:22:46.119Z,99349.13
2023-04-29T05:27:47.651Z,99337.44
2023-04-29T05:32:49.265Z,99386.13
2023-04-29T05:37:50.913Z,99370.66
2023-04-29T05:42:52.491Z,99388.94
2023-04-29T05:47:54.032Z,99400.03
2023-04-29T05:52:56.619Z,99434.91
2023-04-29T05:57:58.186Z,99375.59
2023-04-29T06:02:59.952Z,99436.19
2023-04-29T06:08:02.324Z,99395.81
2023-04-29T06:13:04.121Z,99419.84
2023-04-29T06:18:05.859Z,99425.47
2023-04-29T06:23:07.689Z,99425.69
2023-04-29T06:28:09.365Z,99455.38
2023-04-29T06:33:11.662Z,99440.91
2023-04-29T06:38:13.408Z,99460.91
2023-04-29T06:43:14.975Z,99450.66
2023-04-29T06:48:16.598Z,99447.38
2023-04-29T06:53:18.698Z,99422.84
2023-04-29T06:58:20.882Z,99448.69
2023-04-29T07:03:22.745Z,99443.88
2023-04-29T07:08:24.379Z,99466.91
2023-04-29T07:13:26.128Z,99400.59
2023-04-29T07:18:27.793Z,99478.00
2023-04-29T07:23:29.446Z,99418.19
2023-04-29T07:28:31.105Z,99382.41
2023-04-29T07:33:33.031Z,99442.28
2023-04-29T07:38:34.944Z,99428.06
2023-04-29T07:43:36.951Z,99455.53
2023-04-29T07:48:39.538Z,99441.41
2023-04-29T07:53:41.700Z,99463.97
2023-04-29T07:58:43.276Z,99414.06
2023-04-29T08:03:45.825Z,99395.50
2023-04-29T08:08:48.718Z,99441.78
2023-04-29T08:13:50.622Z,99519.13
2023-04-29T08:18:52.492Z,99485.34
2023-04-29T08:23:55.743Z,99491.50
2023-04-29T08:28:57.307Z,99449.19
2023-04-29T08:33:58.866Z,99447.97
2023-04-29T08:39:00.427Z,99471.47
2023-04-29T08:44:02.102Z,99490.06
2023-04-29T08:49:04.527Z,99443.84
2023-04-29T08:54:07.208Z,99437.66
2023-04-29T08:59:09.757Z,99529.53
2023-04-29T09:05:00.985Z,99444.31
2023-04-29T09:10:05.103Z,99439.78
2023-04-29T09:15:07.191Z,99482.38
2023-04-29T09:20:21.141Z,99479.28
2023-04-29T09:25:23.220Z,99484.56
2023-04-29T09:30:25.121Z,99492.38
2023-04-29T09:35:28.160Z,99455.31
2023-04-29T09:40:43.359Z,99473.03
2023-04-29T09:45:49.017Z,99414.94
2023-04-29T09:51:02.465Z,99470.47
2023-04-29T09:56:05.358Z,99434.56
2023-04-29T10:01:08.265Z,99464.19
2023-04-29T10:06:09.897Z,99409.50
2023-04-29T10:11:12.094Z,99454.63
2023-04-29T10:16:30.402Z,99508.97
2023-04-29T10:21:32.374Z,99474.91
2023-04-29T10:26:37.176Z,99401.53
2023-04-29T10:31:43.114Z,99479.25
2023-04-29T10:36:45.780Z,99332.78
2023-04-29T10:41:47.479Z,99428.19
2023-04-29T10:46:49.106Z,99479.50
2023-04-29T10:51:50.993Z,99449.34
2023-04-29T10:56:54.403Z,99490.28
2023-04-29T11:06:52.397Z,99601.16
2023-04-29T11:11:58.382Z,99536.88
2023-04-29T11:17:03.429Z,99537.13
2023-04-29T11:22:30.588Z,99546.31
2023-04-29T11:27:34.198Z,99520.00
2023-04-29T11:32:43.227Z,99536.97
2023-04-29T11:37:46.931Z,99554.63
2023-04-29T11:42:49.675Z,99509.91
2023-04-29T11:47:52.742Z,99585.41
2023-04-29T11:52:58.263Z,99450.25
2023-04-29T11:58:00.093Z,99503.56
2023-04-29T12:03:01.907Z,99491.72
2023-04-29T12:08:03.749Z,99547.78
2023-04-29T12:13:05.480Z,99507.97
2023-04-29T12:18:08.431Z,99564.81
2023-04-29T12:23:23.251Z,99538.56
2023-04-29T12:28:25.857Z,99563.97
2023-04-29T12:33:29.693Z,99508.22
2023-04-29T12:38:31.612Z,99496.94
2023-04-29T12:43:33.884Z,99608.88
2023-04-29T12:48:38.714Z,99481.19
2023-04-29T12:53:40.909Z,99530.00
2023-04-29T12:58:42.461Z,99568.75
2023-04-29T13:03:44.195Z,99588.28
2023-04-29T13:08:46.008Z,99596.38
2023-04-29T13:13:47.944Z,99557.94
2023-04-29T13:19:01.768Z,99557.72
2023-04-29T13:24:10.450Z,99565.72
2023-04-29T13:29:11.976Z,99534.41
2023-04-29T13:34:13.659Z,99611.22
2023-04-29T13:39:15.410Z,99606.53
2023-04-29T13:44:27.096Z,99612.81
2023-04-29T13:54:59.063Z,99621.00
2023-04-29T13:59:59.032Z,99612.28
2023-04-29T14:05:01.598Z,99616.91
2023-04-29T14:10:03.886Z,99663.31
2023-04-29T14:15:06.321Z,99593.81
2023-04-29T14:20:08.537Z,99705.41
2023-04-29T14:25:11.559Z,99712.41
2023-04-29T14:30:13.831Z,99646.44
2023-04-29T14:35:16.106Z,99716.59
2023-04-29T14:40:17.787Z,99688.19
2023-04-29T14:45:19.512Z,99725.94
2023-04-29T14:50:23.255Z,99680.63
2023-04-29T14:55:24.823Z,99678.59
2023-04-29T15:00:26.498Z,99715.97
2023-04-29T15:05:30.522Z,99649.81
2023-04-29T15:10:32.656Z,99630.16
2023-04-29T15:15:34.664Z,99703.09
2023-04-29T15:20:37.594Z,99620.78
2023-04-29T15:25:39.338Z,99626.66
2023-04-29T15:30:40.977Z,99700.88
2023-04-29T15:35:42.588Z,99647.06
2023-04-29T15:40:44.191Z,99701.34
2023-04-29T15:45:45.818Z,99703.31
2023-04-29T15:50:47.693Z,99756.47
2023-04-29T15:55:49.305Z,99692.91
2023-04-29T16:00:51.310Z,99699.91
2023-04-29T16:05:53.025Z,99729.31
2023-04-29T16:10:54.686Z,99706.97
2023-04-29T16:15:56.666Z,99696.25
2023-04-29T16:20:58.507Z,99641.81
2023-04-29T16:26:00.835Z,99714.31
2023-04-29T16:31:02.403Z,99667.41
2023-04-29T16:36:05.291Z,99703.19
2023-04-29T16:41:07.430Z,99747.78
2023-04-29T16:46:09.935Z,99656.75
2023-04-29T16:51:11.788Z,99709.47
2023-04-29T16:56:13.379Z,99712.97
2023-04-29T17:01:15.427Z,99700.72
2023-04-29T17:06:17.379Z,99709.28
2023-04-29T17:11:19.064Z,99744.63
2023-04-29T17:16:20.672Z,99712.38
2023-04-29T17:21:25.923Z,99676.91
2023-04-29T17:26:27.640Z,99645.75
2023-04-29T17:31:44.772Z,99658.00
2023-04-29T17:36:47.456Z,99657.59
2023-04-29T17:41:49.301Z,99676.84
2023-04-29T17:46:51.021Z,99712.19
2023-04-29T17:51:52.599Z,99693.34
2023-04-29T17:56:54.209Z,99689.41
2023-04-29T18:01:55.770Z,99692.97
2023-04-29T18:06:57.381Z,99712.16
2023-04-29T18:11:58.932Z,99694.09
2023-04-29T18:17:01.152Z,99701.41
2023-04-29T18:22:02.849Z,99732.50
2023-04-29T18:27:04.439Z,99717.28
2023-04-29T18:32:07.922Z,99719.13
2023-04-29T18:37:09.802Z,99747.56
2023-04-29T18:42:11.585Z,99717.81
2023-04-29T18:47:13.109Z,99745.81
2023-04-29T18:52:14.657Z,99698.50
2023-04-29T18:57:16.359Z,99767.13
2023-04-29T19:02:17.903Z,99744.75
2023-04-29T19:07:19.597Z,99737.69
2023-04-29T19:12:21.198Z,99753.00
2023-04-29T19:17:22.837Z,99791.63
2023-04-29T19:22:24.580Z,99711.16
2023-04-29T19:27:26.168Z,99797.72
2023-04-29T19:32:30.022Z,99831.25
2023-04-29T19:37:31.829Z,99808.63
2023-04-29T19:42:33.454Z,99781.59
2023-04-29T19:47:35.296Z,99782.09
2023-04-29T19:52:36.880Z,99849.50
2023-04-29T19:57:38.829Z,99781.06
2023-04-29T20:02:44.751Z,99845.22
2023-04-29T20:07:46.493Z,99858.56
2023-04-29T20:12:48.122Z,99866.84
2023-04-29T20:17:49.787Z,99836.41
2023-04-29T20:22:51.517Z,99899.75
2023-04-29T20:27:53.803Z,99906.47
2023-04-29T20:32:55.970Z,99891.69
2023-04-29T20:37:57.684Z,99873.03
2023-04-29T20:42:59.506Z,99894.16
2023-04-29T20:48:01.169Z,99838.28
2023-04-29T20:53:03.364Z,99894.06
2023-04-29T20:58:04.927Z,99877.47
2023-04-29T21:03:07.730Z,99920.63
2023-04-29T21:08:09.461Z,99919.63
2023-04-29T21:13:11.156Z,99938.09
2023-04-29T21:18:13.129Z,99876.66
2023-04-29T21:23:14.723Z,99921.59
2023-04-29T21:28:17.044Z,99916.91
2023-04-29T21:33:18.752Z,99959.44
2023-04-29T21:38:20.616Z,99953.00
2023-04-29T21:43:22.606Z,99928.56
2023-04-29T21:48:25.203Z,99882.88
2023-04-29T21:53:26.820Z,99961.88
2023-04-29T21:58:28.485Z,99953.59
2023-04-29T22:03:30.597Z,99980.97
2023-04-29T22:08:32.330Z,99945.94
2023-04-29T22:13:33.921Z,99938.69
2023-04-29T22:18:35.518Z,99991.72
2023-04-29T22:23:37.061Z,99989.41
2023-04-29T22:28:38.624Z,99901.03
2023-04-29T22:33:40.273Z,99945.63
2023-04-29T22:38:41.832Z,99985.28
2023-04-29T22:43:44.273Z,99911.94
2023-04-29T22:48:45.908Z,99977.16
2023-04-29T22:53:47.464Z,100001.66
2023-04-29T22:58:49.018Z,99985.41
2023-04-29T23:03:50.553Z,99998.72
2023-04-29T23:08:53.473Z,100020.97
2023-04-29T23:13:55.027Z,100017.63
2023-04-29T23:18:56.614Z,100014.50
2023-04-29T23:23:58.157Z,100031.91
2023-04-29T23:29:00.553Z,100033.72
2023-04-29T23:34:02.162Z,100026.34
2023-04-29T23:39:03.797Z,100021.81
2023-04-29T23:44:05.416Z,100013.22
2023-04-29T23:49:06.945Z,100010.59
2023-04-29T23:54:08.566Z,100054.56
2023-04-29T23:59:10.312Z,100038.38
